createdAt,value
2023-03-17T00:01:20.974Z,19.55
2023-03-17T00:04:03.525Z,19.54
2023-03-17T00:06:57.860Z,19.61
2023-03-17T00:09:51.523Z,19.55
2023-03-17T00:12:45.152Z,19.52
2023-03-17T00:15:38.882Z,19.49
2023-03-17T00:18:35.186Z,19.51
2023-03-17T00:21:31.724Z,19.49
2023-03-17T00:24:25.898Z,19.49
2023-03-17T00:27:20.595Z,19.48
2023-03-17T00:30:16.796Z,19.47
2023-03-17T00:33:13.279Z,19.46
2023-03-17T00:36:07.883Z,19.45
2023-03-17T00:38:41.387Z,19.44
2023-03-17T00:41:35.033Z,19.44
2023-03-17T00:44:28.955Z,19.44
2023-03-17T00:47:22.649Z,19.43
2023-03-17T00:50:19.822Z,19.41
2023-03-17T00:53:17.412Z,19.42
2023-03-17T00:56:16.794Z,19.42
2023-03-17T00:59:37.313Z,19.37
2023-03-17T01:02:31.055Z,19.37
2023-03-17T01:05:26.663Z,19.36
2023-03-17T01:08:21.070Z,19.34
2023-03-17T01:11:20.759Z,19.35
2023-03-17T01:14:15.353Z,19.34
2023-03-17T01:17:15.582Z,19.33
2023-03-17T01:20:17.093Z,19.32
2023-03-17T01:23:10.856Z,19.29
2023-03-17T01:26:04.842Z,19.29
2023-03-17T01:28:58.924Z,19.28
2023-03-17T01:31:52.942Z,19.26
2023-03-17T01:34:47.369Z,19.27
2023-03-17T01:37:41.191Z,19.27
2023-03-17T01:40:38.896Z,19.26
2023-03-17T01:43:33.188Z,19.25
2023-03-17T01:46:30.793Z,19.22
2023-03-17T01:49:30.233Z,19.25
2023-03-17T01:52:24.864Z,19.25
2023-03-17T01:55:20.804Z,19.24
2023-03-17T01:58:16.064Z,19.23
2023-03-17T02:01:10.750Z,19.27
2023-03-17T02:04:06.390Z,19.24
2023-03-17T02:07:00.638Z,19.25
2023-03-17T02:09:54.589Z,19.25
2023-03-17T02:12:51.993Z,19.25
2023-03-17T02:15:49.427Z,19.25
2023-03-17T02:18:43.304Z,19.26
2023-03-17T02:21:42.937Z,19.25
2023-03-17T02:24:41.569Z,19.25
2023-03-17T02:27:41.570Z,19.26
2023-03-17T02:30:36.845Z,19.25
2023-03-17T02:33:30.516Z,19.26
2023-03-17T02:36:24.285Z,19.24
2023-03-17T02:39:17.955Z,19.24
2023-03-17T02:42:13.084Z,19.24
2023-03-17T02:45:09.099Z,19.25
2023-03-17T02:48:03.981Z,19.22
2023-03-17T02:50:57.708Z,19.22
2023-03-17T02:53:51.388Z,19.22
2023-03-17T02:56:45.028Z,19.22
2023-03-17T02:59:39.268Z,19.21
2023-03-17T03:02:33.352Z,19.20
2023-03-17T03:05:27.287Z,19.23
2023-03-17T03:08:22.023Z,19.20
2023-03-17T03:11:15.535Z,19.17
2023-03-17T03:14:09.557Z,19.18
2023-03-17T03:17:04.379Z,19.20
2023-03-17T03:19:57.946Z,19.18
2023-03-17T03:22:51.823Z,19.16
2023-03-17T03:25:45.809Z,19.19
2023-03-17T03:28:39.526Z,19.17
2023-03-17T03:31:33.160Z,19.17
2023-03-17T03:34:27.838Z,19.17
2023-03-17T03:37:22.720Z,19.18
2023-03-17T03:40:17.734Z,19.17
2023-03-17T03:43:22.442Z,19.18
2023-03-17T03:46:17.218Z,19.18
2023-03-17T03:49:11.011Z,19.18
2023-03-17T03:52:04.837Z,19.14
2023-03-17T03:54:58.405Z,19.13
2023-03-17T03:57:52.323Z,19.12
2023-03-17T04:00:46.662Z,19.11
2023-03-17T04:03:40.788Z,19.14
2023-03-17T04:06:34.409Z,19.15
2023-03-17T04:09:28.339Z,19.15
2023-03-17T04:12:22.103Z,19.13
2023-03-17T04:15:19.629Z,19.14
2023-03-17T04:18:13.278Z,19.23
2023-03-17T04:21:08.324Z,19.25
2023-03-17T04:24:02.576Z,19.31
2023-03-17T04:26:56.355Z,19.20
2023-03-17T04:29:50.142Z,19.19
2023-03-17T04:32:44.006Z,19.19
2023-03-17T04:35:37.716Z,19.16
2023-03-17T04:38:31.643Z,19.17
2023-03-17T04:41:25.301Z,19.16
2023-03-17T04:44:19.066Z,19.14
2023-03-17T04:46:55.625Z,19.15
2023-03-17T04:49:49.143Z,19.15
2023-03-17T04:52:43.577Z,19.13
2023-03-17T04:55:37.531Z,19.12
2023-03-17T04:58:31.469Z,19.15
2023-03-17T05:01:26.301Z,19.11
2023-03-17T05:04:31.136Z,19.09
2023-03-17T05:07:25.680Z,19.05
2023-03-17T05:10:13.778Z,19.08
2023-03-17T05:13:07.421Z,19.05
2023-03-17T05:16:02.128Z,19.08
2023-03-17T05:18:56.268Z,19.05
2023-03-17T05:21:49.921Z,19.05
2023-03-17T05:24:43.646Z,19.06
2023-03-17T05:27:37.680Z,19.05
2023-03-17T05:30:31.652Z,19.05
2023-03-17T05:33:26.116Z,19.05
2023-03-17T05:36:19.821Z,19.03
2023-03-17T05:39:14.637Z,19.08
2023-03-17T05:42:09.354Z,19.08
2023-03-17T05:45:03.032Z,19.05
2023-03-17T05:47:56.846Z,19.03
2023-03-17T05:50:50.664Z,19.03
2023-03-17T05:53:44.439Z,19.04
2023-03-17T05:56:38.547Z,19.03
2023-03-17T05:59:33.378Z,19.05
2023-03-17T06:02:27.236Z,19.06
2023-03-17T06:05:21.361Z,19.08
2023-03-17T06:08:15.238Z,19.05
2023-03-17T06:11:09.124Z,19.06
2023-03-17T06:14:02.861Z,19.06
2023-03-17T06:16:56.858Z,19.10
2023-03-17T06:19:50.528Z,19.11
2023-03-17T06:23:00.659Z,19.09
2023-03-17T06:25:57.329Z,19.11
2023-03-17T06:28:50.942Z,19.06
2023-03-17T06:31:50.254Z,19.05
2023-03-17T06:34:44.670Z,19.06
2023-03-17T06:37:38.866Z,19.08
2023-03-17T06:40:34.127Z,19.04
2023-03-17T06:43:27.921Z,19.05
2023-03-17T06:46:21.680Z,19.03
2023-03-17T06:49:15.894Z,19.03
2023-03-17T06:52:10.412Z,19.04
2023-03-17T06:54:47.023Z,19.08
2023-03-17T06:57:40.944Z,19.10
2023-03-17T07:00:34.547Z,19.13
2023-03-17T07:03:28.643Z,19.05
2023-03-17T07:06:23.250Z,18.98
2023-03-17T07:09:17.518Z,18.95
2023-03-17T07:12:12.209Z,18.90
2023-03-17T07:15:06.686Z,18.90
2023-03-17T07:18:00.558Z,18.90
2023-03-17T07:20:54.325Z,18.86
2023-03-17T07:23:48.064Z,18.93
2023-03-17T07:26:41.616Z,19.01
2023-03-17T07:29:35.616Z,19.06
2023-03-17T07:32:29.523Z,19.03
2023-03-17T07:35:23.489Z,18.94
2023-03-17T07:38:17.861Z,18.95
2023-03-17T07:41:11.637Z,18.98
2023-03-17T07:44:05.490Z,19.03
2023-03-17T07:46:59.446Z,19.04
2023-03-17T07:49:53.385Z,19.05
2023-03-17T07:52:47.410Z,19.13
2023-03-17T07:55:41.417Z,19.17
2023-03-17T07:58:17.900Z,19.34
2023-03-17T08:01:11.705Z,19.55
2023-03-17T08:04:07.607Z,16.35
2023-03-17T08:07:01.483Z,15.59
2023-03-17T08:09:56.137Z,18.46
2023-03-17T08:12:51.978Z,19.07
2023-03-17T08:15:46.365Z,19.09
2023-03-17T08:18:40.169Z,19.17
2023-03-17T08:21:33.831Z,19.17
2023-03-17T08:24:27.970Z,19.26
2023-03-17T08:27:22.521Z,19.13
2023-03-17T08:30:18.367Z,19.03
2023-03-17T08:33:12.671Z,19.98
2023-03-17T08:36:10.335Z,20.25
2023-03-17T08:39:04.637Z,20.34
2023-03-17T08:41:59.305Z,20.41
2023-03-17T08:44:55.414Z,20.42
2023-03-17T08:47:49.556Z,20.49
2023-03-17T08:50:30.827Z,20.49
2023-03-17T08:53:25.058Z,20.48
2023-03-17T08:56:18.835Z,20.46
2023-03-17T08:59:15.924Z,20.53
2023-03-17T09:02:14.771Z,20.52
2023-03-17T09:05:10.463Z,20.49
2023-03-17T09:08:04.549Z,20.44
2023-03-17T09:10:58.353Z,20.42
2023-03-17T09:13:52.439Z,20.53
2023-03-17T09:16:48.658Z,20.52
2023-03-17T09:19:43.455Z,20.51
2023-03-17T09:22:37.412Z,20.45
2023-03-17T09:25:31.163Z,20.57
2023-03-17T09:28:24.742Z,20.63
2023-03-17T09:31:20.339Z,20.64
2023-03-17T09:34:14.325Z,20.68
2023-03-17T09:37:09.991Z,20.78
2023-03-17T09:40:08.407Z,20.33
2023-03-17T09:43:19.506Z,19.50
2023-03-17T09:46:27.375Z,20.52
2023-03-17T09:49:28.461Z,20.59
2023-03-17T09:52:43.869Z,20.69
2023-03-17T09:55:38.794Z,20.70
2023-03-17T09:58:37.454Z,20.61
2023-03-17T10:01:32.208Z,20.55
2023-03-17T10:04:25.919Z,20.37
2023-03-17T10:07:26.038Z,20.45
2023-03-17T10:10:30.292Z,20.27
2023-03-17T10:13:45.657Z,20.33
2023-03-17T10:16:39.617Z,20.32
2023-03-17T10:19:39.402Z,20.37
2023-03-17T10:22:41.154Z,20.29
2023-03-17T10:25:37.587Z,19.60
2023-03-17T10:28:36.102Z,18.98
2023-03-17T10:31:35.586Z,18.84
2023-03-17T10:34:32.696Z,18.64
2023-03-17T10:37:29.689Z,18.25
2023-03-17T10:40:30.498Z,17.69
2023-03-17T10:43:30.274Z,18.09
2023-03-17T10:46:26.832Z,16.70
2023-03-17T10:49:23.616Z,16.10
2023-03-17T10:52:25.409Z,16.19
2023-03-17T10:55:24.109Z,18.57
2023-03-17T11:03:30.296Z,19.23
2023-03-17T11:06:47.203Z,19.53
2023-03-17T11:09:41.155Z,19.63
2023-03-17T11:12:42.387Z,19.67
2023-03-17T11:15:41.330Z,19.51
2023-03-17T11:22:41.861Z,19.69
2023-03-17T11:25:40.356Z,19.48
2023-03-17T11:28:41.130Z,19.39
2023-03-17T11:31:41.648Z,19.48
2023-03-17T11:34:45.504Z,19.38
2023-03-17T11:38:00.839Z,19.63
2023-03-17T11:41:33.750Z,19.51
2023-03-17T11:45:10.775Z,19.65
2023-03-17T11:48:07.964Z,19.43
2023-03-17T11:51:01.276Z,19.15
2023-03-17T11:54:09.777Z,17.15
2023-03-17T11:56:55.715Z,16.95
2023-03-17T12:00:18.232Z,18.04
2023-03-17T12:03:24.947Z,18.38
2023-03-17T12:06:25.885Z,18.79
2023-03-17T12:09:31.980Z,18.82
2023-03-17T12:12:45.649Z,18.90
2023-03-17T12:15:44.684Z,18.76
2023-03-17T12:18:36.046Z,18.67
2023-03-17T12:21:36.890Z,18.76
2023-03-17T12:24:39.099Z,18.75
2023-03-17T12:27:38.167Z,18.79
2023-03-17T12:30:41.082Z,18.65
2023-03-17T12:33:43.780Z,18.62
2023-03-17T12:36:39.372Z,18.60
2023-03-17T12:39:29.985Z,18.60
2023-03-17T12:42:47.787Z,18.61
2023-03-17T12:46:20.163Z,18.63
2023-03-17T12:49:44.964Z,18.65
2023-03-17T12:52:56.934Z,18.60
2023-03-17T12:55:53.621Z,18.61
2023-03-17T12:58:52.634Z,18.57
2023-03-17T13:01:55.609Z,18.63
2023-03-17T13:04:57.960Z,18.62
2023-03-17T13:07:56.106Z,18.56
2023-03-17T13:10:50.504Z,18.54
2023-03-17T13:13:59.461Z,18.56
2023-03-17T13:16:53.661Z,18.63
2023-03-17T13:20:10.901Z,18.67
2023-03-17T13:23:16.647Z,18.61
2023-03-17T13:26:12.262Z,18.59
2023-03-17T13:29:27.876Z,18.61
2023-03-17T13:33:07.474Z,18.52
2023-03-17T13:36:23.716Z,18.53
2023-03-17T13:39:54.678Z,18.56
2023-03-17T13:43:19.923Z,18.62
2023-03-17T13:46:36.329Z,18.66
2023-03-17T13:49:32.101Z,18.62
2023-03-17T13:52:31.986Z,18.64
2023-03-17T13:56:04.012Z,18.64
2023-03-17T13:59:12.479Z,18.53
2023-03-17T14:02:17.565Z,18.52
2023-03-17T14:05:24.680Z,18.45
2023-03-17T14:08:48.768Z,18.42
2023-03-17T14:12:03.542Z,18.40
2023-03-17T14:15:06.994Z,18.43
2023-03-17T14:18:10.892Z,18.42
2023-03-17T14:21:11.639Z,18.45
2023-03-17T14:24:21.699Z,18.62
2023-03-17T14:27:17.247Z,18.57
2023-03-17T14:30:23.396Z,18.56
2023-03-17T14:33:26.968Z,18.41
2023-03-17T14:36:21.960Z,18.45
2023-03-17T14:39:26.900Z,18.51
2023-03-17T14:42:26.865Z,18.44
2023-03-17T14:45:32.675Z,18.37
2023-03-17T14:48:07.164Z,18.50
2023-03-17T14:51:06.510Z,18.54
2023-03-17T14:54:03.643Z,18.39
2023-03-17T14:57:03.307Z,18.34
2023-03-17T15:00:17.010Z,18.30
2023-03-17T15:03:23.623Z,18.26
2023-03-17T15:06:30.573Z,18.27
2023-03-17T15:09:29.061Z,18.22
2023-03-17T15:12:24.716Z,18.21
2023-03-17T15:15:27.507Z,18.19
2023-03-17T15:18:23.038Z,18.18
2023-03-17T15:21:34.755Z,18.17
2023-03-17T15:24:44.127Z,18.14
2023-03-17T15:27:39.967Z,18.18
2023-03-17T15:30:46.277Z,18.29
2023-03-17T15:33:42.725Z,18.26
2023-03-17T15:36:36.644Z,18.19
2023-03-17T15:39:30.247Z,18.17
2023-03-17T15:42:16.278Z,18.14
2023-03-17T15:45:12.437Z,18.13
2023-03-17T15:47:49.339Z,18.12
2023-03-17T15:50:42.860Z,18.13
2023-03-17T15:53:25.710Z,18.16
2023-03-17T15:56:23.159Z,18.26
2023-03-17T15:59:16.665Z,18.32
2023-03-17T16:02:32.943Z,18.33
2023-03-17T16:05:30.175Z,18.30
2023-03-17T16:08:24.860Z,18.27
2023-03-17T16:11:28.106Z,18.23
2023-03-17T16:14:07.336Z,18.14
2023-03-17T16:17:01.098Z,18.15
2023-03-17T16:19:55.922Z,18.14
2023-03-17T16:22:49.584Z,18.10
2023-03-17T16:25:43.197Z,18.15
2023-03-17T16:28:37.150Z,18.23
2023-03-17T16:31:31.993Z,18.21
2023-03-17T16:34:27.959Z,18.29
2023-03-17T16:37:19.384Z,18.27
2023-03-17T16:40:23.886Z,18.15
2023-03-17T16:43:25.902Z,18.03
2023-03-17T16:46:21.038Z,17.95
2023-03-17T16:49:18.364Z,17.98
2023-03-17T16:52:12.500Z,17.99
2023-03-17T16:55:09.727Z,18.11
2023-03-17T16:57:57.706Z,18.03
2023-03-17T17:00:53.541Z,17.94
2023-03-17T17:03:38.795Z,17.91
2023-03-17T17:06:32.863Z,18.02
2023-03-17T17:09:26.458Z,17.88
2023-03-17T17:12:20.062Z,17.85
2023-03-17T17:15:17.649Z,17.88
2023-03-17T17:18:16.811Z,17.89
2023-03-17T17:21:10.936Z,17.88
2023-03-17T17:24:05.029Z,17.88
2023-03-17T17:26:58.659Z,17.88
2023-03-17T17:29:52.337Z,16.99
2023-03-17T17:32:46.174Z,16.25
2023-03-17T17:35:40.110Z,17.39
2023-03-17T17:38:34.232Z,17.53
2023-03-17T17:41:27.879Z,17.63
2023-03-17T17:44:21.664Z,17.64
2023-03-17T17:47:16.151Z,17.67
2023-03-17T17:50:13.249Z,17.64
2023-03-17T17:53:08.765Z,17.62
2023-03-17T17:56:02.273Z,17.61
2023-03-17T17:58:55.912Z,17.66
2023-03-17T18:01:49.718Z,17.87
2023-03-17T18:04:44.176Z,17.76
2023-03-17T18:07:37.987Z,17.63
2023-03-17T18:10:32.046Z,17.60
2023-03-17T18:13:26.019Z,17.57
2023-03-17T18:16:20.993Z,17.59
2023-03-17T18:19:16.397Z,17.60
2023-03-17T18:22:09.960Z,17.56
2023-03-17T18:25:03.628Z,17.66
2023-03-17T18:27:57.851Z,17.78
2023-03-17T18:30:51.479Z,17.72
2023-03-17T18:33:47.065Z,17.62
2023-03-17T18:36:41.322Z,17.64
2023-03-17T18:39:35.974Z,17.61
2023-03-17T18:42:29.733Z,17.63
2023-03-17T18:45:23.719Z,17.68
2023-03-17T18:48:17.433Z,17.78
2023-03-17T18:51:11.301Z,17.67
2023-03-17T18:54:06.071Z,17.78
2023-03-17T18:57:00.020Z,17.82
2023-03-17T18:59:53.607Z,17.85
2023-03-17T19:02:47.574Z,17.91
2023-03-17T19:05:41.596Z,17.99
2023-03-17T19:08:35.735Z,17.78
2023-03-17T19:11:29.763Z,17.74
2023-03-17T19:14:23.413Z,17.78
2023-03-17T19:17:17.003Z,17.86
2023-03-17T19:20:13.467Z,17.82
2023-03-17T19:23:08.011Z,17.75
2023-03-17T19:26:01.591Z,17.72
2023-03-17T19:28:56.729Z,17.70
2023-03-17T19:31:50.441Z,17.69
2023-03-17T19:34:44.281Z,17.67
2023-03-17T19:37:38.240Z,17.68
2023-03-17T19:40:32.310Z,17.69
2023-03-17T19:43:39.930Z,17.68
2023-03-17T19:46:35.992Z,17.68
2023-03-17T19:49:29.696Z,17.66
2023-03-17T19:52:23.400Z,17.65
2023-03-17T19:55:18.105Z,17.61
2023-03-17T19:58:12.514Z,17.62
2023-03-17T20:01:07.466Z,17.61
2023-03-17T20:04:01.475Z,17.62
2023-03-17T20:06:56.864Z,17.73
2023-03-17T20:09:51.180Z,17.64
2023-03-17T20:12:45.746Z,17.59
2023-03-17T20:15:40.181Z,17.56
2023-03-17T20:18:34.337Z,17.56
2023-03-17T20:21:28.089Z,17.54
2023-03-17T20:24:22.362Z,17.59
2023-03-17T20:27:16.060Z,17.57
2023-03-17T20:30:12.563Z,17.49
2023-03-17T20:33:07.852Z,17.42
2023-03-17T20:36:04.998Z,17.53
2023-03-17T20:38:58.768Z,17.52
2023-03-17T20:41:53.121Z,17.44
2023-03-17T20:44:52.747Z,17.41
2023-03-17T20:47:47.313Z,17.40
2023-03-17T20:50:41.326Z,17.54
2023-03-17T20:53:34.882Z,17.58
2023-03-17T20:56:29.927Z,17.59
2023-03-17T20:59:24.694Z,17.60
2023-03-17T21:02:19.862Z,17.44
2023-03-17T21:05:20.507Z,17.39
2023-03-17T21:08:14.583Z,17.38
2023-03-17T21:11:09.160Z,17.38
2023-03-17T21:14:03.357Z,17.36
2023-03-17T21:16:57.822Z,17.38
2023-03-17T21:19:51.688Z,17.46
2023-03-17T21:22:45.996Z,17.51
2023-03-17T21:25:39.684Z,17.79
2023-03-17T21:28:33.283Z,17.81
2023-03-17T21:31:27.211Z,17.75
2023-03-17T21:34:22.119Z,17.78
2023-03-17T21:37:08.062Z,17.83
2023-03-17T21:40:01.790Z,17.99
2023-03-17T21:42:55.616Z,18.00
2023-03-17T21:45:49.316Z,17.93
2023-03-17T21:48:44.043Z,17.94
2023-03-17T21:51:37.695Z,18.00
2023-03-17T21:54:21.523Z,18.06
2023-03-17T21:57:15.217Z,18.08
2023-03-17T22:00:12.558Z,18.13
2023-03-17T22:03:02.293Z,18.13
2023-03-17T22:05:56.694Z,18.10
2023-03-17T22:08:50.619Z,18.12
2023-03-17T22:11:44.405Z,18.14
2023-03-17T22:14:38.667Z,18.18
2023-03-17T22:17:33.150Z,18.19
2023-03-17T22:20:26.760Z,18.30
2023-03-17T22:23:20.584Z,18.30
2023-03-17T22:26:16.650Z,18.26
2023-03-17T22:29:10.335Z,18.28
2023-03-17T22:32:03.998Z,18.28
2023-03-17T22:34:58.032Z,18.32
2023-03-17T22:37:51.604Z,18.35
2023-03-17T22:40:45.202Z,18.39
2023-03-17T22:43:40.333Z,18.56
2023-03-17T22:46:33.925Z,18.49
2023-03-17T22:49:27.749Z,18.47
2023-03-17T22:52:21.357Z,18.47
2023-03-17T22:55:15.906Z,18.47
2023-03-17T22:58:09.510Z,18.49
2023-03-17T23:01:03.611Z,18.50
2023-03-17T23:03:58.046Z,18.55
2023-03-17T23:06:51.675Z,18.53
2023-03-17T23:09:46.582Z,18.69
2023-03-17T23:12:40.248Z,18.65
2023-03-17T23:15:34.785Z,18.60
2023-03-17T23:18:28.849Z,18.61
2023-03-17T23:21:03.302Z,18.77
2023-03-17T23:23:56.875Z,18.68
2023-03-17T23:26:51.419Z,18.67
2023-03-17T23:29:45.075Z,18.66
2023-03-17T23:32:38.583Z,18.68
2023-03-17T23:35:33.372Z,18.79
2023-03-17T23:38:27.681Z,18.77
2023-03-17T23:41:21.517Z,18.71
2023-03-17T23:44:16.275Z,18.70
2023-03-17T23:47:10.708Z,18.72
2023-03-17T23:50:05.780Z,18.77
2023-03-17T23:52:59.944Z,18.79
2023-03-17T23:55:54.380Z,18.79
2023-03-17T23:58:49.015Z,18.79
